Time;durP1;ratioP1;P1;durP2;ratioP2;P2;SDS_P1;SDS_P2;PMS_P1;PMS_P2;Temp;Humidity;BMP_temperature;BMP_pressure;BME280_temperature;BME280_humidity;BME280_pressure;Samples;Min_cycle;Max_cycle;Signal;HPM_P1;HPM_P2
2023/03/15 00:00:42;;;;;;;20.60;4.60;;;4.90;48.10;;;;;;5113446;28;20376;-74
2023/03/15 00:03:08;;;;;;;18.35;4.60;;;4.90;49.40;;;;;;5113344;27;20407;-74
2023/03/15 00:05:34;;;;;;;14.38;4.70;;;4.80;50.70;;;;;;5113643;28;20497;-74
2023/03/15 00:08:00;;;;;;;11.88;4.30;;;4.80;52.60;;;;;;5113588;28;20745;-75
2023/03/15 00:10:26;;;;;;;19.60;5.68;;;4.80;52.50;;;;;;5113782;28;20421;-74
2023/03/15 00:12:52;;;;;;;20.35;5.13;;;4.80;53.90;;;;;;5114887;28;20384;-74
2023/03/15 00:15:21;;;;;;;13.63;4.85;;;4.80;54.30;;;;;;5114974;28;20376;-75
2023/03/15 00:17:46;;;;;;;17.90;6.03;;;4.90;54.50;;;;;;5113372;28;20418;-73
2023/03/15 00:20:15;;;;;;;17.88;5.85;;;4.90;54.30;;;;;;5113239;28;20427;-76
2023/03/15 00:22:41;;;;;;;19.83;5.70;;;4.90;55.10;;;;;;5112843;28;20429;-75
2023/03/15 00:25:07;;;;;;;13.90;5.07;;;4.80;58.00;;;;;;5112971;28;20373;-75
2023/03/15 00:27:33;;;;;;;16.50;6.30;;;4.80;58.90;;;;;;5113160;28;20426;-74
2023/03/15 00:29:58;;;;;;;14.23;4.90;;;4.60;64.50;;;;;;5113184;28;20861;-75
2023/03/15 00:32:24;;;;;;;19.13;6.10;;;4.60;66.40;;;;;;5112692;28;20426;-74
2023/03/15 00:34:53;;;;;;;12.73;5.10;;;4.60;67.00;;;;;;5112703;28;20480;-74
2023/03/15 00:37:19;;;;;;;15.30;5.27;;;4.50;69.00;;;;;;5112628;28;20908;-75
2023/03/15 00:39:46;;;;;;;19.10;5.60;;;4.30;74.30;;;;;;5112984;28;20421;-74
2023/03/15 00:42:16;;;;;;;14.45;5.05;;;4.20;77.90;;;;;;5112165;28;20381;-76
2023/03/15 00:44:42;;;;;;;12.77;4.70;;;4.10;81.40;;;;;;5112673;28;20383;-75
2023/03/15 00:47:13;;;;;;;10.07;3.17;;;3.90;83.50;;;;;;5112767;28;20887;-75
2023/03/15 00:49:39;;;;;;;14.20;3.83;;;3.90;81.90;;;;;;5113992;28;20380;-74
2023/03/15 00:52:06;;;;;;;15.20;3.90;;;4.00;83.30;;;;;;5125874;28;20388;-75
2023/03/15 00:54:32;;;;;;;10.98;4.40;;;3.90;84.20;;;;;;5129581;28;20471;-74
2023/03/15 00:56:59;;;;;;;8.73;4.45;;;4.00;85.10;;;;;;5113034;28;20372;-75
2023/03/15 00:59:26;;;;;;;11.38;4.22;;;3.90;87.70;;;;;;5112579;28;20771;-75
2023/03/15 01:01:52;;;;;;;12.00;3.38;;;3.90;89.20;;;;;;5112125;28;20381;-75
2023/03/15 01:04:17;;;;;;;11.57;4.47;;;3.80;90.60;;;;;;5112337;28;20473;-74
2023/03/15 01:06:43;;;;;;;8.27;3.90;;;4.10;88.90;;;;;;5112538;28;20586;-74
2023/03/15 01:09:09;;;;;;;9.57;3.80;;;4.10;78.60;;;;;;5112283;28;20671;-75
2023/03/15 01:11:34;;;;;;;10.02;3.65;;;4.10;80.20;;;;;;5114961;28;20432;-74
2023/03/15 01:14:02;;;;;;;7.97;4.03;;;4.00;82.40;;;;;;5112097;28;20392;-75
2023/03/15 01:16:28;;;;;;;8.98;3.60;;;4.00;84.00;;;;;;5111971;28;20444;-74
2023/03/15 01:18:54;;;;;;;11.38;4.40;;;4.00;82.90;;;;;;5111686;28;20741;-74
2023/03/15 01:21:21;;;;;;;14.68;4.95;;;4.00;84.10;;;;;;5111898;28;20885;-73
2023/03/15 01:23:47;;;;;;;12.55;3.92;;;4.00;86.40;;;;;;5112605;28;20545;-74
2023/03/15 01:26:14;;;;;;;9.53;4.53;;;4.00;84.40;;;;;;5113365;28;20412;-74
2023/03/15 01:28:40;;;;;;;14.32;4.93;;;4.00;85.10;;;;;;5121746;28;20383;-74
2023/03/15 01:31:08;;;;;;;14.68;5.47;;;4.00;85.40;;;;;;5120243;28;20388;-75
2023/03/15 01:33:33;;;;;;;10.90;5.07;;;4.00;84.20;;;;;;5128365;28;20380;-73
2023/03/15 01:36:05;;;;;;;10.23;5.90;;;4.00;85.90;;;;;;5123602;28;20440;-74
2023/03/15 01:38:32;;;;;;;11.05;4.60;;;4.00;86.30;;;;;;5114091;28;20467;-73
2023/03/15 01:40:58;;;;;;;13.77;5.50;;;4.00;86.10;;;;;;5110109;28;20407;-73
2023/03/15 01:43:26;;;;;;;14.13;6.10;;;3.90;85.00;;;;;;5111304;28;20865;-75
2023/03/15 01:45:55;;;;;;;16.02;6.75;;;3.90;88.00;;;;;;5111481;28;20391;-74
2023/03/15 01:48:26;;;;;;;16.05;6.68;;;3.80;89.70;;;;;;5109999;28;20413;-74
2023/03/15 01:50:54;;;;;;;16.90;7.00;;;3.80;89.30;;;;;;5111328;28;20426;-73
2023/03/15 01:53:22;;;;;;;13.23;7.50;;;3.80;89.60;;;;;;5111178;28;20887;-73
2023/03/15 01:55:48;;;;;;;17.83;7.70;;;3.90;91.20;;;;;;5111145;28;20865;-74
2023/03/15 01:58:14;;;;;;;12.13;6.90;;;3.90;91.30;;;;;;5111188;27;20395;-74
2023/03/15 02:00:40;;;;;;;15.48;6.63;;;3.90;88.00;;;;;;5112224;28;20392;-74
2023/03/15 02:03:13;;;;;;;12.95;7.80;;;3.80;89.00;;;;;;5112208;28;20472;-74
2023/03/15 02:05:45;;;;;;;22.33;8.90;;;3.80;90.40;;;;;;5112920;28;20384;-74
2023/03/15 02:08:14;;;;;;;17.10;8.60;;;3.90;92.70;;;;;;5112244;28;20467;-74
2023/03/15 02:10:47;;;;;;;20.42;9.88;;;3.90;92.90;;;;;;5112248;28;20422;-74
2023/03/15 02:13:16;;;;;;;19.25;10.05;;;3.80;92.90;;;;;;5111395;28;20431;-74
2023/03/15 02:15:45;;;;;;;18.88;10.80;;;3.80;97.50;;;;;;5112378;28;20387;-75
2023/03/15 02:18:12;;;;;;;28.50;11.93;;;3.70;99.90;;;;;;5111153;28;20749;-73
2023/03/15 02:20:59;;;;;;;22.70;11.82;;;3.90;99.90;;;;;;5109779;28;20388;-74
2023/03/15 02:23:26;;;;;;;22.40;11.27;;;3.90;96.50;;;;;;5111020;28;20400;-75
2023/03/15 02:26:10;;;;;;;30.50;12.32;;;3.70;97.20;;;;;;5114988;28;20464;-73
2023/03/15 02:28:37;;;;;;;22.02;11.55;;;3.70;99.90;;;;;;5115306;28;20392;-74
2023/03/15 02:31:03;;;;;;;21.10;11.95;;;3.80;99.50;;;;;;5114858;28;20471;-75
2023/03/15 02:33:56;;;;;;;26.10;11.93;;;3.70;99.90;;;;;;5115278;28;20415;-74
2023/03/15 02:36:24;;;;;;;20.97;10.20;;;3.70;99.90;;;;;;5114937;28;20857;-74
2023/03/15 02:38:50;;;;;;;22.15;10.45;;;3.90;99.90;;;;;;5114959;28;20380;-75
2023/03/15 02:41:25;;;;;;;17.80;9.02;;;4.20;94.90;;;;;;5114603;28;20445;-75
2023/03/15 02:43:54;;;;;;;20.77;10.15;;;4.30;91.20;;;;;;5115042;28;20483;-74
2023/03/15 02:46:21;;;;;;;17.92;9.80;;;4.40;89.30;;;;;;5114588;28;20376;-75
2023/03/15 02:48:48;;;;;;;18.20;9.20;;;4.40;92.00;;;;;;5115085;28;20365;-74
2023/03/15 02:51:20;;;;;;;16.80;7.65;;;4.50;89.10;;;;;;5114519;28;20418;-75
2023/03/15 02:53:46;;;;;;;7.60;5.40;;;4.60;88.00;;;;;;5114885;28;20428;-75
2023/03/15 02:56:13;;;;;;;10.93;5.07;;;4.60;85.40;;;;;;5114538;28;20453;-75
2023/03/15 02:58:39;;;;;;;9.60;4.82;;;4.70;81.70;;;;;;5114490;28;20380;-73
2023/03/15 03:01:04;;;;;;;6.90;4.10;;;4.60;82.40;;;;;;5114212;28;20385;-74
2023/03/15 03:03:30;;;;;;;8.90;4.90;;;4.60;81.60;;;;;;5114137;28;20564;-75
2023/03/15 03:05:55;;;;;;;4.90;4.10;;;4.70;83.30;;;;;;5114422;28;20388;-74
2023/03/15 03:08:21;;;;;;;8.10;3.78;;;4.60;81.40;;;;;;5114370;28;20377;-75
2023/03/15 03:10:47;;;;;;;5.67;4.17;;;4.60;81.50;;;;;;5114322;28;20841;-75
2023/03/15 03:13:13;;;;;;;4.73;4.30;;;4.50;84.10;;;;;;5114190;28;20464;-74
2023/03/15 03:15:39;;;;;;;6.35;4.70;;;4.50;82.10;;;;;;5114392;28;20376;-74
2023/03/15 03:18:04;;;;;;;6.50;5.50;;;4.50;81.70;;;;;;5114946;28;20395;-74
2023/03/15 03:20:30;;;;;;;9.47;5.83;;;4.50;79.60;;;;;;5115178;28;20420;-75
2023/03/15 03:22:56;;;;;;;12.10;6.38;;;4.40;79.80;;;;;;5120231;28;20423;-73
2023/03/15 03:25:25;;;;;;;6.40;5.70;;;4.50;78.30;;;;;;5119594;28;20840;-74
2023/03/15 03:27:55;;;;;;;6.93;6.22;;;4.50;78.80;;;;;;5115133;28;20421;-74
2023/03/15 03:30:21;;;;;;;9.50;7.30;;;4.40;78.00;;;;;;5114837;27;20514;-74
2023/03/15 03:32:47;;;;;;;9.30;6.93;;;4.30;78.60;;;;;;5113020;28;20924;-76
2023/03/15 03:35:12;;;;;;;9.88;6.47;;;4.20;83.70;;;;;;5113974;28;20445;-74
2023/03/15 03:37:38;;;;;;;9.77;7.03;;;4.20;82.40;;;;;;5114068;28;20728;-74
2023/03/15 03:40:08;;;;;;;8.57;7.47;;;4.20;83.40;;;;;;5113586;28;20458;-74
2023/03/15 03:42:34;;;;;;;13.10;7.95;;;4.10;85.20;;;;;;5113736;28;20406;-75
2023/03/15 03:45:00;;;;;;;10.10;7.55;;;4.20;83.80;;;;;;5114332;28;20438;-75
2023/03/15 03:47:25;;;;;;;10.17;7.60;;;4.10;82.80;;;;;;5114800;28;20416;-74
2023/03/15 03:49:51;;;;;;;10.95;8.07;;;4.10;82.50;;;;;;5114196;28;20744;-74
2023/03/15 03:52:16;;;;;;;9.20;7.70;;;4.00;85.80;;;;;;5114469;28;20380;-74
2023/03/15 03:54:42;;;;;;;12.73;6.60;;;4.10;85.70;;;;;;5113994;28;20372;-75
2023/03/15 03:57:09;;;;;;;12.52;8.50;;;4.00;85.70;;;;;;5112334;28;20399;-74
2023/03/15 03:59:34;;;;;;;11.55;8.43;;;3.80;91.10;;;;;;5114180;28;20372;-74
2023/03/15 04:02:00;;;;;;;11.83;8.67;;;3.80;92.70;;;;;;5113342;28;20738;-74
2023/03/15 04:04:25;;;;;;;11.47;9.00;;;3.80;92.40;;;;;;5113848;28;20900;-74
2023/03/15 04:06:53;;;;;;;13.93;9.40;;;3.80;93.50;;;;;;5114087;28;20748;-73
2023/03/15 04:09:20;;;;;;;11.90;9.53;;;3.80;93.70;;;;;;5113132;28;20437;-75
2023/03/15 04:11:46;;;;;;;12.48;9.10;;;3.70;92.30;;;;;;5115762;28;20377;-74
2023/03/15 04:14:13;;;;;;;11.95;8.38;;;3.80;94.90;;;;;;5114560;28;20741;-75
2023/03/15 04:16:39;;;;;;;10.40;7.65;;;3.90;88.10;;;;;;5114928;28;20404;-75
2023/03/15 04:19:05;;;;;;;9.63;7.40;;;3.90;87.90;;;;;;5118272;28;20376;-75
2023/03/15 04:21:31;;;;;;;15.32;8.20;;;3.70;88.20;;;;;;5125225;28;20441;-74
2023/03/15 04:24:00;;;;;;;10.63;8.07;;;3.50;91.70;;;;;;5120143;28;20408;-75
2023/03/15 04:26:27;;;;;;;11.00;8.25;;;3.30;94.30;;;;;;5122096;27;20876;-74
2023/03/15 04:28:57;;;;;;;13.52;9.65;;;3.30;96.20;;;;;;5126709;28;20432;-75
2023/03/15 04:31:26;;;;;;;15.20;9.77;;;3.30;96.70;;;;;;5116636;28;20545;-73
2023/03/15 04:33:54;;;;;;;15.43;9.73;;;3.40;96.10;;;;;;5117068;28;20383;-75
2023/03/15 04:36:21;;;;;;;22.30;12.57;;;3.40;96.70;;;;;;5112899;28;20510;-74
2023/03/15 04:38:47;;;;;;;16.97;11.80;;;3.20;99.90;;;;;;5113344;28;20383;-75
2023/03/15 04:41:17;;;;;;;18.35;12.30;;;3.20;99.90;;;;;;5112783;28;20400;-74
2023/03/15 04:43:43;;;;;;;19.43;11.87;;;3.30;99.90;;;;;;5112878;28;20455;-73
2023/03/15 04:46:09;;;;;;;19.20;10.90;;;3.60;99.90;;;;;;5114030;28;20380;-73
2023/03/15 04:48:35;;;;;;;12.68;9.75;;;3.80;99.90;;;;;;5113655;28;20368;-74
2023/03/15 04:51:01;;;;;;;16.45;10.90;;;3.90;94.80;;;;;;5112470;28;20422;-74
2023/03/15 04:53:27;;;;;;;14.50;10.30;;;3.80;92.70;;;;;;5112634;28;20416;-74
2023/03/15 04:55:53;;;;;;;16.55;10.95;;;3.80;93.90;;;;;;5113115;28;20396;-75
2023/03/15 04:58:19;;;;;;;15.33;11.13;;;3.60;99.90;;;;;;5112253;28;20384;-75
2023/03/15 05:00:45;;;;;;;14.00;10.85;;;3.60;99.90;;;;;;5112369;28;20915;-75
2023/03/15 05:03:10;;;;;;;15.90;11.00;;;3.70;99.90;;;;;;5112026;28;20436;-74
2023/03/15 05:05:36;;;;;;;14.00;11.50;;;3.80;99.50;;;;;;5112052;28;20746;-74
2023/03/15 05:08:01;;;;;;;15.45;10.90;;;3.70;97.40;;;;;;5112876;28;20381;-74
2023/03/15 05:10:32;;;;;;;13.13;10.20;;;3.80;97.50;;;;;;5112710;28;20467;-74
2023/03/15 05:12:57;;;;;;;13.20;10.47;;;3.90;94.10;;;;;;5111912;28;20876;-74
2023/03/15 05:15:23;;;;;;;14.10;10.32;;;4.00;92.00;;;;;;5112231;28;20384;-75
2023/03/15 05:17:48;;;;;;;14.02;10.52;;;3.90;92.00;;;;;;5110880;28;20387;-74
2023/03/15 05:20:15;;;;;;;12.25;10.25;;;3.80;96.00;;;;;;5112303;28;20376;-74
2023/03/15 05:22:41;;;;;;;13.93;9.38;;;3.90;95.20;;;;;;5114502;28;20407;-74
2023/03/15 05:25:09;;;;;;;13.00;9.18;;;4.00;92.20;;;;;;5112555;28;20379;-75
2023/03/15 05:27:35;;;;;;;11.85;9.32;;;4.00;91.20;;;;;;5111861;28;20380;-74
2023/03/15 05:30:04;;;;;;;12.50;9.63;;;3.90;90.50;;;;;;5111426;28;20384;-75
2023/03/15 05:32:33;;;;;;;11.47;9.57;;;3.80;91.60;;;;;;5112341;28;20463;-76
2023/03/15 05:34:59;;;;;;;13.57;10.10;;;3.80;93.50;;;;;;5113452;28;20384;-76
2023/03/15 05:37:25;;;;;;;14.35;10.75;;;3.80;94.90;;;;;;5112189;28;20408;-75
2023/03/15 05:39:50;;;;;;;13.27;9.97;;;3.60;96.30;;;;;;5111912;28;20729;-74
2023/03/15 05:42:20;;;;;;;13.87;10.87;;;3.80;90.10;;;;;;5111698;28;20383;-73
2023/03/15 05:44:47;;;;;;;13.43;11.02;;;3.80;91.50;;;;;;5112246;28;20411;-75
2023/03/15 05:47:12;;;;;;;14.40;10.43;;;3.70;93.10;;;;;;5112133;28;20376;-74
2023/03/15 05:49:38;;;;;;;14.48;11.25;;;3.80;90.20;;;;;;5112711;28;20771;-75
2023/03/15 05:52:04;;;;;;;17.73;12.18;;;3.70;90.30;;;;;;5112095;28;20409;-75
2023/03/15 05:54:29;;;;;;;17.70;12.57;;;3.50;94.20;;;;;;5119751;28;20380;-74
2023/03/15 05:56:55;;;;;;;16.23;12.30;;;3.70;92.10;;;;;;5126674;28;20448;-74
2023/03/15 05:59:20;;;;;;;19.63;12.57;;;3.70;93.10;;;;;;5114622;28;20445;-75
2023/03/15 06:01:46;;;;;;;15.60;11.45;;;3.70;91.70;;;;;;5111289;28;20399;-75
2023/03/15 06:04:11;;;;;;;18.88;13.07;;;3.70;91.70;;;;;;5111452;28;20799;-75
2023/03/15 06:06:37;;;;;;;22.30;13.88;;;3.70;94.60;;;;;;5111439;28;20756;-74
2023/03/15 06:09:03;;;;;;;20.20;13.60;;;3.90;88.50;;;;;;5111388;28;20373;-75
2023/03/15 06:11:28;;;;;;;21.33;13.20;;;3.80;90.50;;;;;;5109981;28;20385;-74
2023/03/15 06:13:54;;;;;;;19.47;12.27;;;3.90;89.70;;;;;;5111630;28;20383;-74
2023/03/15 06:16:19;;;;;;;21.43;12.40;;;4.00;85.60;;;;;;5103879;22;20842;-73
2023/03/15 06:18:45;;;;;;;19.60;12.33;;;3.90;84.50;;;;;;5050302;28;20388;-71
2023/03/15 06:21:10;;;;;;;23.38;14.10;;;3.70;87.80;;;;;;5049809;28;20381;-71
2023/03/15 06:23:36;;;;;;;24.30;13.48;;;3.80;90.00;;;;;;5050169;28;20409;-72
2023/03/15 06:26:01;;;;;;;23.27;13.18;;;3.70;89.80;;;;;;5050072;28;20385;-72
2023/03/15 06:28:27;;;;;;;25.33;14.10;;;3.70;89.70;;;;;;5050153;28;20462;-74
2023/03/15 06:30:52;;;;;;;26.40;12.07;;;3.80;90.90;;;;;;5050029;28;20393;-72
2023/03/15 06:33:18;;;;;;;23.33;12.60;;;3.70;87.20;;;;;;5049858;28;20472;-73
2023/03/15 06:35:45;;;;;;;22.20;13.23;;;3.60;88.80;;;;;;5049954;28;20389;-72
2023/03/15 06:38:12;;;;;;;23.35;13.75;;;3.70;91.90;;;;;;5049931;28;20388;-71
2023/03/15 06:40:38;;;;;;;25.33;15.45;;;3.80;91.00;;;;;;5049808;28;20389;-73
2023/03/15 06:43:05;;;;;;;26.08;13.38;;;3.90;91.00;;;;;;5049981;28;20411;-73
2023/03/15 06:45:32;;;;;;;16.95;9.45;;;3.90;87.90;;;;;;5051547;28;20929;-73
2023/03/15 06:47:57;;;;;;;21.67;11.68;;;3.70;88.60;;;;;;5049831;28;20388;-72
2023/03/15 06:50:23;;;;;;;19.00;11.10;;;3.70;89.10;;;;;;5051188;28;20749;-72
2023/03/15 06:52:48;;;;;;;21.37;11.80;;;3.70;89.70;;;;;;5050269;28;20731;-74
2023/03/15 06:55:17;;;;;;;24.13;14.73;;;3.70;92.40;;;;;;5053469;28;20417;-73
2023/03/15 06:57:43;;;;;;;24.13;14.93;;;3.80;95.50;;;;;;5049881;28;20385;-72
2023/03/15 07:00:10;;;;;;;21.27;12.35;;;3.90;93.40;;;;;;5050400;28;20393;-72
2023/03/15 07:02:36;;;;;;;17.58;10.70;;;4.20;87.20;;;;;;5049708;28;20861;-73
2023/03/15 07:05:03;;;;;;;25.10;15.80;;;4.20;82.90;;;;;;5049827;28;20389;-72
2023/03/15 07:07:28;;;;;;;26.92;15.63;;;4.00;87.60;;;;;;5049771;28;20418;-73
2023/03/15 07:09:54;;;;;;;22.05;11.98;;;4.10;88.80;;;;;;5050647;28;20475;-72
2023/03/15 07:12:20;;;;;;;19.83;11.87;;;4.20;81.30;;;;;;5053479;28;20858;-74
2023/03/15 07:14:45;;;;;;;22.13;11.97;;;4.10;82.60;;;;;;5054027;28;20476;-72
2023/03/15 07:17:11;;;;;;;20.53;11.57;;;4.10;85.20;;;;;;5053242;28;20807;-72
2023/03/15 07:19:37;;;;;;;20.15;11.75;;;4.00;83.90;;;;;;5053570;28;20404;-74
2023/03/15 07:22:02;;;;;;;24.75;11.70;;;4.10;86.10;;;;;;5053830;28;20417;-71
2023/03/15 07:24:29;;;;;;;18.83;12.40;;;4.00;82.90;;;;;;5053787;28;20405;-73
2023/03/15 07:26:55;;;;;;;24.57;14.53;;;4.10;85.40;;;;;;5056158;28;20396;-72
2023/03/15 07:29:22;;;;;;;23.50;13.27;;;4.10;86.60;;;;;;5053296;28;20387;-74
2023/03/15 07:31:48;;;;;;;22.67;13.18;;;4.40;84.50;;;;;;5053157;28;20382;-73
2023/03/15 07:34:13;;;;;;;22.88;12.57;;;4.60;81.50;;;;;;5053270;28;20441;-74
2023/03/15 07:36:39;;;;;;;22.87;13.27;;;4.80;76.60;;;;;;5053811;28;20413;-73
2023/03/15 07:39:04;;;;;;;18.17;9.90;;;4.80;77.40;;;;;;5053039;28;20384;-74
2023/03/15 07:41:30;;;;;;;21.90;12.43;;;4.80;70.80;;;;;;5052141;28;20821;-72
2023/03/15 07:43:56;;;;;;;19.57;11.27;;;4.90;74.00;;;;;;5052465;28;20410;-72
2023/03/15 07:46:21;;;;;;;23.70;13.20;;;4.90;73.40;;;;;;5053355;28;20393;-73
2023/03/15 07:48:47;;;;;;;19.08;11.88;;;4.80;76.90;;;;;;5053177;28;20823;-71
2023/03/15 07:51:12;;;;;;;21.25;12.25;;;5.00;73.70;;;;;;5052963;28;20385;-73
2023/03/15 07:53:38;;;;;;;20.80;13.10;;;5.10;75.20;;;;;;5053270;28;20392;-73
2023/03/15 07:56:04;;;;;;;20.20;12.35;;;5.20;73.00;;;;;;5055362;28;20777;-73
2023/03/15 07:58:30;;;;;;;20.73;12.87;;;5.20;68.50;;;;;;5052839;28;20394;-72
2023/03/15 08:00:56;;;;;;;16.55;11.45;;;5.20;69.20;;;;;;5054470;28;20420;-70
2023/03/15 08:03:23;;;;;;;21.25;11.35;;;5.30;68.50;;;;;;5057933;28;20413;-71
2023/03/15 08:05:49;;;;;;;19.65;11.15;;;5.40;65.70;;;;;;5058706;28;20817;-74
2023/03/15 08:08:15;;;;;;;19.93;9.90;;;5.50;66.10;;;;;;5054745;28;20431;-73
2023/03/15 08:10:42;;;;;;;18.05;10.77;;;5.30;65.70;;;;;;5053058;28;20869;-73
2023/03/15 08:13:07;;;;;;;19.52;10.88;;;5.30;65.30;;;;;;5052902;28;20468;-74
2023/03/15 08:15:33;;;;;;;15.67;9.53;;;5.40;65.20;;;;;;5053458;28;20475;-73
2023/03/15 08:17:59;;;;;;;16.37;6.77;;;5.70;59.00;;;;;;5052411;28;20385;-75
2023/03/15 08:20:24;;;;;;;17.83;8.75;;;5.30;54.20;;;;;;5052597;28;20734;-73
2023/03/15 08:22:50;;;;;;;16.67;9.27;;;5.10;60.90;;;;;;5050996;28;20413;-74
2023/03/15 08:25:19;;;;;;;23.13;9.70;;;5.20;62.30;;;;;;5051979;28;20723;-74
2023/03/15 08:27:45;;;;;;;16.90;8.10;;;5.30;58.10;;;;;;5052456;28;20881;-74
2023/03/15 08:30:12;;;;;;;16.70;8.93;;;5.50;53.40;;;;;;5052466;28;20404;-73
2023/03/15 08:32:43;;;;;;;17.63;8.23;;;5.90;51.60;;;;;;5052416;28;20415;-73
2023/03/15 08:35:11;;;;;;;25.77;9.63;;;6.10;50.20;;;;;;5051822;28;20486;-73
2023/03/15 08:37:37;;;;;;;13.07;8.90;;;6.00;50.40;;;;;;5052074;28;20386;-74
2023/03/15 08:40:08;;;;;;;16.02;9.02;;;6.10;50.60;;;;;;5052334;28;20793;-72
2023/03/15 08:42:35;;;;;;;12.95;7.95;;;6.20;51.40;;;;;;5051665;28;20419;-72
2023/03/15 08:45:02;;;;;;;13.80;7.60;;;6.10;51.90;;;;;;5051930;28;20393;-73
2023/03/15 08:47:28;;;;;;;15.30;7.65;;;5.90;49.30;;;;;;5053365;28;20377;-74
2023/03/15 08:49:53;;;;;;;17.03;8.10;;;5.80;51.50;;;;;;5050877;28;20373;-73
2023/03/15 08:52:20;;;;;;;15.17;8.60;;;5.40;51.30;;;;;;5051584;28;20385;-72
2023/03/15 08:54:46;;;;;;;14.70;7.70;;;5.40;53.30;;;;;;5050536;28;20431;-71
2023/03/15 08:57:11;;;;;;;23.23;8.30;;;5.40;53.30;;;;;;5051520;28;20400;-73
2023/03/15 08:59:37;;;;;;;16.07;8.37;;;5.80;50.90;;;;;;5052228;28;20386;-71
2023/03/15 09:02:03;;;;;;;14.30;8.85;;;6.10;45.20;;;;;;5052183;28;20386;-72
2023/03/15 09:04:30;;;;;;;13.98;8.27;;;6.70;45.10;;;;;;5052188;28;20408;-72
2023/03/15 09:06:55;;;;;;;17.63;8.15;;;7.10;45.50;;;;;;5052265;28;20405;-73
2023/03/15 09:09:21;;;;;;;20.77;9.88;;;7.00;41.80;;;;;;5053842;28;20936;-72
2023/03/15 09:11:46;;;;;;;16.97;9.53;;;6.80;42.30;;;;;;5052519;28;20413;-72
2023/03/15 09:14:12;;;;;;;18.30;8.80;;;6.80;41.00;;;;;;5050529;28;20897;-74
2023/03/15 09:16:37;;;;;;;14.43;8.63;;;6.60;42.50;;;;;;5051732;28;20496;-73
2023/03/15 09:19:03;;;;;;;15.32;8.40;;;6.40;43.70;;;;;;5049395;28;20743;-74
2023/03/15 09:21:28;;;;;;;16.38;8.38;;;6.20;44.20;;;;;;5033229;28;20884;-74
2023/03/15 09:23:54;;;;;;;15.57;8.02;;;6.10;47.20;;;;;;5035923;28;20413;-73
2023/03/15 09:26:20;;;;;;;22.15;8.60;;;6.00;47.20;;;;;;5037969;28;20397;-73
2023/03/15 09:28:45;;;;;;;18.30;7.88;;;5.90;48.90;;;;;;5047001;28;20398;-72
2023/03/15 09:31:11;;;;;;;19.20;8.90;;;6.00;47.60;;;;;;5041033;28;20401;-72
2023/03/15 09:33:36;;;;;;;15.97;7.60;;;6.20;46.30;;;;;;5043442;28;20450;-71
2023/03/15 09:36:02;;;;;;;16.73;8.80;;;6.50;45.30;;;;;;5028529;28;20402;-73
2023/03/15 09:38:27;;;;;;;15.30;8.03;;;6.80;39.90;;;;;;5044953;28;20405;-75
2023/03/15 09:40:58;;;;;;;24.27;8.00;;;6.90;39.80;;;;;;5047699;28;20881;-72
2023/03/15 09:43:45;;;;;;;17.63;8.63;;;7.20;36.00;;;;;;5029890;28;20418;-72
2023/03/15 09:46:28;;;;;;;13.05;7.57;;;7.40;35.60;;;;;;5034158;28;20905;-73
2023/03/15 09:49:29;;;;;;;14.00;7.30;;;7.10;35.60;;;;;;5040330;28;20565;-76
2023/03/15 09:52:01;;;;;;;12.60;5.87;;;7.30;35.30;;;;;;5043216;28;20391;-77
2023/03/15 09:54:31;;;;;;;15.47;6.97;;;7.60;32.10;;;;;;5031718;28;20387;-75
2023/03/15 09:57:01;;;;;;;17.13;7.10;;;7.20;36.00;;;;;;5030982;28;20443;-75
2023/03/15 09:59:38;;;;;;;17.35;6.95;;;7.50;34.90;;;;;;5031407;28;20799;-71
2023/03/15 10:02:22;;;;;;;16.30;6.45;;;7.60;35.40;;;;;;5030512;28;20437;-74
2023/03/15 10:04:52;;;;;;;13.38;5.80;;;7.70;34.80;;;;;;5040916;28;20751;-76
2023/03/15 10:07:17;;;;;;;15.50;6.00;;;8.10;33.90;;;;;;5051388;28;20411;-74
2023/03/15 10:09:44;;;;;;;13.83;6.40;;;8.10;32.80;;;;;;5052304;28;20825;-74
2023/03/15 10:12:13;;;;;;;12.80;6.30;;;8.20;31.50;;;;;;5044065;28;20391;-75
2023/03/15 10:14:50;;;;;;;12.85;5.53;;;7.80;32.00;;;;;;5032488;28;20399;-73
2023/03/15 10:17:42;;;;;;;12.82;4.50;;;7.80;31.00;;;;;;5033810;28;20970;-76
2023/03/15 10:20:17;;;;;;;8.48;3.70;;;7.80;28.60;;;;;;5032601;28;20402;-74
2023/03/15 10:23:06;;;;;;;13.30;6.00;;;7.90;27.40;;;;;;5049843;28;20711;-74
2023/03/15 10:25:34;;;;;;;15.27;6.20;;;8.10;25.70;;;;;;5051073;28;20396;-73
2023/03/15 10:28:01;;;;;;;18.25;6.85;;;8.10;24.80;;;;;;5051056;28;20389;-74
2023/03/15 10:30:30;;;;;;;17.58;6.75;;;7.90;26.50;;;;;;5051886;28;20617;-74
2023/03/15 10:33:00;;;;;;;12.93;6.07;;;8.30;25.50;;;;;;5051611;28;20396;-73
2023/03/15 10:35:26;;;;;;;15.25;7.50;;;8.70;22.30;;;;;;5050850;28;20488;-74
2023/03/15 10:37:52;;;;;;;14.80;6.70;;;8.10;23.60;;;;;;5051597;28;20800;-74
2023/03/15 10:40:38;;;;;;;16.03;6.50;;;8.10;24.90;;;;;;5050605;28;20401;-73
2023/03/15 10:43:19;;;;;;;8.93;4.63;;;8.10;25.80;;;;;;5051574;28;20451;-72
2023/03/15 10:45:59;;;;;;;13.77;5.05;;;8.70;24.10;;;;;;5051622;28;20432;-73
2023/03/15 10:48:25;;;;;;;8.38;4.28;;;9.00;23.90;;;;;;5054846;28;20392;-73
2023/03/15 10:50:51;;;;;;;12.82;4.60;;;8.90;25.80;;;;;;5054397;28;20382;-72
2023/03/15 10:53:20;;;;;;;13.67;4.00;;;9.20;21.00;;;;;;5054032;28;20901;-74
2023/03/15 10:55:46;;;;;;;10.23;3.45;;;8.70;18.40;;;;;;5054063;28;20530;-72
2023/03/15 10:58:23;;;;;;;11.60;3.70;;;8.50;18.10;;;;;;5054008;28;20411;-72
2023/03/15 11:01:12;;;;;;;7.85;4.90;;;8.60;18.70;;;;;;5053887;28;20896;-73
2023/03/15 11:03:39;;;;;;;14.55;4.97;;;8.80;18.80;;;;;;5055550;28;20475;-73
2023/03/15 11:06:20;;;;;;;9.45;4.07;;;8.60;19.90;;;;;;5053891;28;20434;-74
2023/03/15 11:08:45;;;;;;;13.20;4.80;;;8.90;18.90;;;;;;5054240;28;20385;-73
2023/03/15 11:11:11;;;;;;;14.25;5.15;;;8.80;19.40;;;;;;5054151;28;20853;-73
2023/03/15 11:13:39;;;;;;;12.68;4.00;;;8.20;22.90;;;;;;5054558;28;20389;-73
2023/03/15 11:16:13;;;;;;;12.73;4.10;;;8.30;22.00;;;;;;5055845;28;20393;-75
2023/03/15 11:18:47;;;;;;;9.95;3.28;;;8.50;23.40;;;;;;5054252;28;20800;-72
2023/03/15 11:21:16;;;;;;;14.88;4.47;;;8.60;22.50;;;;;;5053579;28;20396;-74
2023/03/15 11:23:47;;;;;;;13.35;4.30;;;8.60;22.20;;;;;;5053442;28;20413;-75
2023/03/15 11:26:20;;;;;;;9.55;3.97;;;8.50;22.00;;;;;;5053223;28;20385;-73
2023/03/15 11:28:53;;;;;;;12.47;4.03;;;8.50;22.00;;;;;;5052995;28;20389;-74
2023/03/15 11:31:20;;;;;;;12.25;3.70;;;8.30;22.60;;;;;;5056166;28;20390;-73
2023/03/15 11:34:16;;;;;;;10.30;2.70;;;8.20;24.10;;;;;;5056070;28;20819;-73
2023/03/15 11:36:46;;;;;;;6.37;2.33;;;8.50;18.80;;;;;;5053680;28;20431;-74
2023/03/15 11:39:16;;;;;;;9.38;2.75;;;8.50;17.30;;;;;;5054177;28;20385;-73
2023/03/15 11:42:08;;;;;;;8.68;2.50;;;8.40;17.90;;;;;;5054105;28;20400;-75
2023/03/15 11:44:38;;;;;;;11.45;2.50;;;8.50;17.90;;;;;;5053977;28;20409;-72
2023/03/15 11:47:26;;;;;;;13.90;3.27;;;8.60;17.90;;;;;;5053579;28;20517;-74
2023/03/15 11:49:54;;;;;;;9.38;2.95;;;8.50;18.30;;;;;;5053788;28;20412;-75
2023/03/15 11:52:23;;;;;;;8.75;2.88;;;8.10;19.00;;;;;;5054141;28;20420;-75
2023/03/15 11:54:54;;;;;;;9.48;3.35;;;8.30;19.20;;;;;;5053561;28;20434;-74
2023/03/15 11:57:54;;;;;;;9.05;2.80;;;8.60;18.50;;;;;;5052788;28;20453;-73
2023/03/15 12:00:27;;;;;;;5.30;2.80;;;8.60;17.60;;;;;;5054028;28;20385;-73
2023/03/15 12:02:56;;;;;;;12.15;3.10;;;8.50;17.90;;;;;;5054646;28;20405;-75
2023/03/15 12:05:51;;;;;;;9.57;2.80;;;8.10;19.50;;;;;;5060516;28;20388;-72
2023/03/15 12:08:26;;;;;;;8.05;2.70;;;8.00;20.20;;;;;;5073160;28;20393;-73
2023/03/15 12:10:52;;;;;;;7.07;2.10;;;8.20;19.40;;;;;;5071411;28;20378;-74
2023/03/15 12:13:29;;;;;;;4.32;1.90;;;7.90;17.00;;;;;;5055743;28;20382;-74
2023/03/15 12:15:55;;;;;;;6.45;2.40;;;7.70;15.80;;;;;;5053984;28;20385;-74
2023/03/15 12:18:30;;;;;;;6.80;1.70;;;7.70;16.80;;;;;;5052172;28;20800;-73
2023/03/15 12:21:08;;;;;;;3.55;2.05;;;7.80;15.50;;;;;;5052642;28;20468;-73
2023/03/15 12:23:37;;;;;;;7.50;1.90;;;8.10;15.70;;;;;;5052660;28;20462;-74
2023/03/15 12:26:02;;;;;;;11.20;2.65;;;8.20;15.70;;;;;;5052520;28;20442;-74
2023/03/15 12:28:49;;;;;;;6.53;2.30;;;8.40;15.40;;;;;;5052366;28;20393;-72
2023/03/15 12:31:15;;;;;;;5.63;2.78;;;8.40;16.10;;;;;;5051013;28;20488;-72
2023/03/15 12:33:50;;;;;;;7.60;2.70;;;8.40;17.20;;;;;;5053250;28;20472;-74
2023/03/15 12:36:31;;;;;;;3.95;1.90;;;8.40;15.90;;;;;;5053872;28;20401;-72
2023/03/15 12:39:21;;;;;;;10.25;2.92;;;8.20;16.40;;;;;;5052959;28;20382;-74
2023/03/15 12:41:49;;;;;;;8.77;2.10;;;8.30;16.70;;;;;;5052883;28;20393;-71
2023/03/15 12:44:24;;;;;;;6.90;2.63;;;8.60;17.40;;;;;;5052664;28;20412;-72
2023/03/15 12:46:49;;;;;;;7.43;2.30;;;8.80;15.70;;;;;;5055326;28;20465;-73
2023/03/15 12:49:37;;;;;;;6.53;2.20;;;9.10;15.20;;;;;;5056703;28;20863;-73
2023/03/15 12:52:27;;;;;;;9.35;2.40;;;9.30;14.20;;;;;;5055785;28;20409;-74